This is the latest recevied weather packets stored in our database for station/object PY4EI-13. If no packets are shown the sender has not sent any weather packets the latest 10 day(s).
| Time | Temp. | Humidity | Pressure | Rain* | Wind** | Luminosity | Snow |
|---|---|---|---|---|---|---|---|
| 1788471003 | 23.33° C | 50% | 1014.9 hPa | 0 mm | - | - | - |
| 1788470103 | 23.33° C | 49% | 1014.6 hPa | 0 mm | - | - | - |
| 1788469204 | 23.89° C | 48% | 1014.5 hPa | 0 mm | - | - | - |
| 1788467404 | 24.44° C | 46% | 1014.1 hPa | 0 mm | - | - | - |
| 1788465603 | 25° C | 45% | 1013.9 hPa | 0 mm | - | - | - |
| 1788442204 | 20° C | 54% | 1019.6 hPa | 0 mm | - | - | - |
| 1788440404 | 19.44° C | 54% | 1019.9 hPa | 0 mm | - | - | - |
| 1788436804 | 18.33° C | 54% | 1020.5 hPa | 0 mm | - | - | - |
| 1788434104 | 17.78° C | 54% | 1020.6 hPa | 0 mm | - | - | - |
| 1788433204 | 17.78° C | 54% | 1020.8 hPa | 0 mm | - | - | - |
| 1788432304 | 17.22° C | 54% | 1020.9 hPa | 0 mm | - | - | - |
| 1788431404 | 17.22° C | 54% | 1020.9 hPa | 0 mm | - | - | - |
| 1788430504 | 17.22° C | 54% | 1020.8 hPa | 0 mm | - | - | - |
| 1788429604 | 16.67° C | 54% | 1020.9 hPa | 0 mm | - | - | - |
| 1788428704 | 16.67° C | 54% | 1020.8 hPa | 0 mm | - | - | - |
| 1788427804 | 16.67° C | 54% | 1020.7 hPa | 0 mm | - | - | - |
| 1788426903 | 16.67° C | 54% | 1020.5 hPa | 0 mm | - | - | - |
| 1788426004 | 17.22° C | 54% | 1020.3 hPa | 0 mm | - | - | - |
| 1788424203 | 17.22° C | 54% | 1019.9 hPa | 0 mm | - | - | - |
| 1788423303 | 17.22° C | 54% | 1020 hPa | 0 mm | - | - | - |
| 1788422403 | 17.22° C | 53% | 1019.9 hPa | 0 mm | - | - | - |
| 1788420604 | 17.78° C | 53% | 1019.8 hPa | 0 mm | - | - | - |
| 1788419704 | 17.78° C | 53% | 1019.7 hPa | 0 mm | - | - | - |
| 1788418804 | 17.78° C | 53% | 1019.7 hPa | 0 mm | - | - | - |
| 1788417904 | 17.78° C | 53% | 1019.6 hPa | 0 mm | - | - | - |
* Rain since midnight (hover to see other rain measurements)
** Current wind speed in m/s (hover to see current wind gust speed)